Ride Results

Elmhurst (26-08-2006)
Ride distance: 80.0 km

Outcomes - Elmhurst (26-08-2006)
Division No. of Entries Retired / DNE Completed Withdrawn Ineligible V/O Percentage Completed
HW 10 - 10 - - - 100.00%
MW 25 - 21 1 - 3 84.00%
LW 14 - 12 - - 2 85.71%
JN 4 - 4 - - - 100.00%
Totals 53 - 47 1 - 5 88.68%
Results - Elmhurst (26-08-2006)
No. Rider Horse Place Time Leg Speeds Total
Km/Hr
H/R bpm
Heavyweight
58 Dianne Tobin Commanche Man 1 5:42:00 14.4, 13.6 14.04 33, 43, 57 (Avg:50)
79 Monika Heim Marybank Celia 2 5:47:00 14.6, 13.1 13.83 30, 37, 49 (Avg:43)
82 Jarrod Robinson Cromarty Park Zataal 3 6:10:00 13.1, 12.7 12.97 41, 53, 54 (Avg:53)
76 Russell Robinson On Jessies Terms 3 6:10:00 13.1, 12.7 12.97 29, 39, 48 (Avg:43)
65 Carl Adamson Pattersons Curse 5 6:39:00 13.1, 11.0 12.03 36, 43, 50 (Avg:46)
141 Lorraine Cubbin Jaharra Park Nureyev 6 6:41:00 12.3, 11.5 11.97 32, 44, 55 (Avg:49)
192b Luke Smallman Summerzar Nemesis 7 6:58:00 12.7, 10.4 11.48 34, 51, 56 (Avg:53)
398b Rod Mills Avondale Jay 8 7:28:00 11.3, 10.1 10.71 35, 52, 60 (Avg:56)
303 Stephen Poon Beldamar Masal 8 7:28:00 11.4, 10.0 10.71 40, 42, 53 (Avg:47)
326b Simon Thomas Beau Jess 10 8:23:00 10.6, 8.6 9.54 33, 49, 52 (Avg:50)
Middleweight
104b Gail Pound TB Kyneton 1 3:52:00 22.8, 18.8 20.69 36, 41, 42 (Avg:41)
27 Karina Heikkila Ivyleigh Silver Solario 2 3:55:00 22.8, 18.4 20.43 30, 40, 45 (Avg:42)
130 Jennifer Carland Musical Gully Tenor 3 5:15:00 16.5, 14.1 15.24 36, 42, 50 (Avg:46)
69 Sue Cavill Koonwarra Kavalier 4 5:43:00 11.3, 18.1 13.99 36, 38, 44 (Avg:41)
391b Lisa Johnston Soliloquy 4 5:43:00 16.1, 12.3 13.99 37, 48, 55 (Avg:51)
53 Beverley Rayner-Mason Karumba Beaujolais 6 5:47:00 16.4, 11.9 13.83 33, 44, 54 (Avg:49)
396b Aaron Gay T'Neesha 7 6:35:00 12.7, 11.5 12.15 38, 44, 51 (Avg:47)
142 Jan Scholes Karumba Nipper 8 6:41:00 12.3, 11.5 11.97 35, 46, 48 (Avg:47)
21 Shaun Bradley Phoenix Park Epona 9 6:51:00 12.6, 10.8 11.68 34, 40, 46 (Avg:43)
393b Keith Preston Black Springs Aladdin 10 7:13:00 11.9, 10.3 11.09 39, 40, 44 (Avg:42)
392b Cathy Preston Black Springs Rhontone 10 7:13:00 11.9, 10.3 11.09 39, 44, 54 (Avg:49)
172 Emma Sellens Pindarem 12 7:15:00 11.5, 10.5 11.03 34, 43, 57 (Avg:50)
60 Leanne Wyllie Dunbraeton Farah 12 7:15:00 11.5, 10.5 11.03 34, 37, 52 (Avg:44)
89 Sheryl Herbert Krishlah Maleeka 14 7:19:00 11.5, 10.3 10.93 36, 45, 46 (Avg:45)
181 Sharee Court Kanavor Kassan 15 7:20:00 11.5, 10.3 10.91 38, 43, 49 (Avg:46)
64 Kathy Lowther Ennerdale Cassata 16 7:24:00 11.5, 10.1 10.81 42, 50, 58 (Avg:54)
100 Fay Bushby Pyrenees Phenomenon 17 7:26:00 11.5, 10.0 10.76 38, 36, 46 (Avg:41)
191b Jil Bourton Veloce Rosso 18 7:58:00 10.4, 9.6 10.04 32, 33, 45 (Avg:39)
169b Melanie Scott Centre Braveheart 18 7:58:00 10.4, 9.6 10.04 30, 39, 42 (Avg:40)
56 Wendy Bootle Roheryn Saadiya 20 8:08:00 10.4, 9.3 9.84 40, 46, 48 (Avg:47)
397b Sandra Isenmann Inman Park Nevation 21 8:18:00 10.5, 8.8 9.64 38, 42, 50 (Avg:46)
78 Jennifer Pitman Meg Heart Rate L2 0:00:00 16.4, 11.7 - 35, 53, 65 (Avg:59)
108b John Osboldstone Dowling Mourad Lame L1 0:00:00 13.1 - 30, 41 (Avg:41)
395b Vanessa Perry Conderosa Sovuryn Lame L1 0:00:00 20.1 - 34, 40 (Avg:40)
6 Julie Woods Ennerdale Nuno Withdrawn L1 0:00:00 - - 38, 55 (Avg:55)
Lightweight
320b Danielle Costello Menora Dark Moon 1 4:19:00 19.9, 17.2 18.53 34, 44, 47 (Avg:45)
390b Marie Gillett Radiums Rusty 2 4:24:00 18.8, 17.5 18.18 40, 48, 52 (Avg:50)
160 Erin Reid Aloha Glacier Bay 2 4:24:00 18.8, 17.5 18.18 28, 36, 44 (Avg:40)
11 Rohan Stanes Shuja Bint Melika 4 4:58:00 16.5, 15.6 16.11 27, 37, 46 (Avg:41)
161b Kristi Bibby Brave Geronimo 5 6:06:01 13.1, 13.0 13.11 33, 43, 49 (Avg:46)
166b Leanne McDonald Sandine Ballitor 6 6:06:02 13.1, 13.0 13.11 46, 38, 48 (Avg:43)
85 Belinda Kolek Glenvale Samara 7 7:01:00 11.1, 11.6 11.40 40, 38, 46 (Avg:42)
91 Kim Noble Springridge Bungendore 8 7:01:03 11.1, 11.6 11.40 34, 34, 36 (Avg:35)
49 Jessica Remfry Ennerdale Meccano 9 7:15:00 11.5, 10.5 11.03 30, 34, 39 (Avg:36)
61 Lois Sharam Al Bahir 9 7:15:00 11.5, 10.5 11.03 33, 40, 54 (Avg:47)
63 Pamela Cox Phantom Park Countess 11 7:28:00 11.4, 10.0 10.71 36, 42, 47 (Avg:44)
333 Brianna Bainger Brodwinn Ellen 12 8:18:00 10.5, 8.8 9.64 35, 41, 49 (Avg:45)
329b Shannon Decker Asmara Montage Lame L2 0:00:00 10.6, 8.6 - 39, 44, 58 (Avg:51)
399b Kasey Thomas Peoria Seismic Lame L2 0:00:00 10.6, 8.6 - 30, 38, 43 (Avg:40)
Junior
140 Samantha Cubbin Clovelly Park Kimba 1 6:41:00 12.3, 11.5 11.97 32, 39, 41 (Avg:40)
37 Luke Bradley Sweet Mountain River 2 6:51:00 12.6, 10.8 11.68 36, 37, 44 (Avg:40)
90 Samantha Noble Springridge Locksley 3 7:01:00 11.1, 11.6 11.40 36, 48, 60 (Avg:54)
88 Tahnee Lee Max 4 7:15:00 11.5, 10.5 11.03 35, 37, 43 (Avg:40)